Monday, January 21, 2019, 10:10 PM GMT
Back to Local

CYHZ, Halifax International Airport

Location: , , Canada Lat: 44.883
Local Time: 10:10 PM GMT (22:10 GMT) Lon: -63.5
Time Zone: GMT Elev: 475 ft

Show me the last for .
Show Coded

Time T Td Feel RH Dir Speed Gust Alt SLP Vis Weather Sky Remarks
2019-01-21 21:00 27 21 15 79 250° 15 - 29.46 29.48 15 -SHSN OVC027 None
2019-01-21 20:00 27 23 14 86 230° 17 - 29.44 29.45 15 -SHSN OVC019 None
2019-01-21 19:53 27 23 14 86 230° 17 - 29.43 29.45 15 -SHSN OVC019 None
2019-01-21 19:00 28 25 17 86 250° 16 - 29.40 29.42 15 BKN012 OVC028 None
2019-01-21 18:27 28 27 15 92 250° 21 - 29.38 29.39 10 FEW009 BKN015 OVC025 None
2019-01-21 18:00 30 28 20 92 220° 14 - 29.36 29.37 3 -SG BKN007 BKN015 OVC028 None
2019-01-21 17:42 30 28 17 92 230° 14 22 29.35 29.37 10 VCSH FEW006 BKN011 BKN030 None
2019-01-21 17:06 30 28 17 92 240° 15 22 29.35 29.36 4 -SHSN BKN012 OVC030 Pressure rising rapidly
2019-01-21 17:00 30 28 17 92 230° 17 23 29.34 29.35 10 VCSH BKN012 OVC030 None
2019-01-21 16:00 32 30 19 92 220° 18 24 29.33 29.34 8 BKN011 OVC024 None
2019-01-21 15:40 32 30 21 92 220° 16 - 29.32 29.33 7 OVC011 None
2019-01-21 15:16 32 32 21 100 230° 16 - 29.31 29.32 2 -SHSN BKN008 OVC015 None
2019-01-21 15:06 32 32 20 100 240° 12 21 29.31 29.33 5 -SHSN BKN008 OVC019 None
2019-01-21 15:00 32 32 20 100 250° 13 21 29.31 29.32 7 VCSH BKN008 OVC020 None
2019-01-21 14:00 34 34 23 100 240° 17 - 29.26 29.28 7 SCT003 BKN008 Pressure rising rapidly
2019-01-21 13:49 34 34 23 100 230° 17 - 29.25 29.26 3 -DZ BR BKN003 OVC008 None
2019-01-21 13:34 34 34 22 100 230° 14 21 29.24 29.26 1 -DZ BR OVC003 None
2019-01-21 13:12 36 36 26 100 220° 15 - 29.22 29.24 0 -DZ BR VV003 None
2019-01-21 13:00 36 36 26 100 210° 15 - 29.23 29.25 0 FG VV002 Pressure rising rapidly
2019-01-21 12:00 36 36 27 100 210° 14 - 29.18 29.20 0 FG VV002 None
2019-01-21 11:29 37 37 27 100 190° 12 20 29.18 29.19 0 FG VV003 Pressure rising rapidly
2019-01-21 11:17 39 39 29 100 190° 12 22 29.16 29.17 1 BR VV003 Pressure rising rapidly
2019-01-21 11:00 39 39 29 100 200° 15 22 29.13 29.14 0 FG VV001 Pressure falling rapidly
2019-01-21 10:15 45 45 36 100 200° 15 22 29.12 29.13 0 FG VV001 None
2019-01-21 10:00 45 45 37 100 190° 16 - 29.12 29.13 1 BR VV001 None
2019-01-21 09:27 46 46 38 100 200° 15 24 29.12 29.13 1 BR VV001 None
2019-01-21 09:14 46 46 39 100 200° 15 21 29.11 29.13 1 BR VV001 None
2019-01-21 09:00 46 46 37 100 200° 17 32 29.10 29.11 0 BR VV001 None
2019-01-21 08:42 48 48 40 100 200° 20 29 29.12 29.13 0 BR VV001 None
2019-01-21 08:31 48 48 40 100 190° 15 30 29.11 29.12 1 BR VV001 Pressure rising rapidly
2019-01-21 08:00 48 48 39 100 180° 16 33 29.10 29.12 1 -DZ BR VV001 None
2019-01-21 07:47 50 50 42 100 180° 20 30 29.10 29.12 1 -DZ BR OVC002 Pressure falling rapidly
2019-01-21 07:29 50 50 42 100 170° 18 29 29.12 29.13 1 -DZRA BR VV002 None
2019-01-21 07:16 50 50 42 100 160° 16 28 29.12 29.13 2 -RA BR OVC002 None
2019-01-21 07:00 50 50 43 100 160° 14 23 29.14 29.15 4 -RA BR OVC003 None
2019-01-21 06:31 48 48 40 100 180° 18 26 29.15 29.16 8 -RA OVC002 None
2019-01-21 06:14 50 48 42 93 180° 17 29 29.15 29.17 6 -RA BR OVC005 Pressure falling rapidly
2019-01-21 06:06 50 50 42 100 190° 21 32 29.16 29.18 3 RA BR OVC007 None
2019-01-21 06:00 50 50 41 100 190° 17 39 29.18 29.19 2 RA BR OVC007 None
2019-01-21 05:18 50 50 42 100 190° 22 30 29.18 29.19 4 RA BR OVC007 None
2019-01-21 05:10 50 50 42 100 190° 18 31 29.18 29.20 4 -RA BR OVC006 Pressure falling rapidly
2019-01-21 05:00 50 50 41 100 190° 25 39 29.19 29.21 3 RA BR OVC005 Pressure rising rapidly
2019-01-21 04:00 50 50 41 100 180° 26 41 29.21 29.23 3 RA BR OVC003 Pressure falling rapidly
2019-01-21 03:06 48 48 38 100 160° 24 40 29.26 29.28 3 RA BR OVC004 Pressure falling rapidly
2019-01-21 03:00 48 48 39 100 170° 25 37 29.26 29.28 3 -RA BR OVC003 None
2019-01-21 02:00 50 50 41 100 170° 28 40 29.33 29.35 3 -RA BR OVC003 None
2019-01-21 01:15 50 50 40 100 170° 28 46 29.38 29.40 3 -RA BR OVC005 Pressure falling rapidly
2019-01-21 01:00 48 48 38 100 170° 29 45 29.40 29.42 3 -RA BR OVC003 None
2019-01-21 00:35 48 48 38 100 160° 24 43 29.40 29.42 3 -RA BR OVC003 None
2019-01-21 00:21 48 48 38 100 160° 28 39 29.40 29.42 1 -RA BR OVC003 Pressure falling rapidly
2019-01-21 00:00 48 48 38 100 170° 26 39 29.43 29.45 0 -RA FG VV003 Pressure falling rapidly
2019-01-20 23:50 48 48 38 100 170° 24 39 29.44 29.46 0 -RA FG VV003 None
2019-01-20 23:00 48 48 39 100 160° 21 35 29.47 29.49 0 -RA FG VV002 None
2019-01-20 22:27 48 48 38 100 170° 26 39 29.51 29.53 0 -RA FG VV001 None

Support USWX by starting your Amazon purchase here.